createdAt,value
2016-06-19T00:00:25.605Z,23.96
2016-06-19T00:01:25.156Z,24.04
2016-06-19T00:02:25.002Z,23.94
2016-06-19T00:03:25.319Z,23.96
2016-06-19T00:04:25.025Z,24.07
2016-06-19T00:05:25.045Z,23.89
2016-06-19T00:06:25.141Z,23.94
2016-06-19T00:07:25.052Z,23.89
2016-06-19T00:08:25.133Z,23.96
2016-06-19T00:09:25.073Z,23.96
2016-06-19T00:10:25.110Z,23.96
2016-06-19T00:11:25.721Z,23.94
2016-06-19T00:12:25.428Z,23.96
2016-06-19T00:13:25.120Z,23.89
2016-06-19T00:14:25.763Z,23.94
2016-06-19T00:15:25.142Z,23.97
2016-06-19T00:16:25.161Z,23.93
2016-06-19T00:17:25.273Z,23.89
2016-06-19T00:18:25.168Z,23.96
2016-06-19T00:19:25.186Z,24
2016-06-19T00:20:25.190Z,24
2016-06-19T00:21:25.226Z,23.97
2016-06-19T00:22:25.479Z,23.99
2016-06-19T00:23:25.232Z,23.96
2016-06-19T00:24:25.547Z,23.97
2016-06-19T00:25:25.270Z,23.92
2016-06-19T00:26:25.274Z,23.96
2016-06-19T00:27:25.339Z,23.97
2016-06-19T00:28:25.297Z,23.97
2016-06-19T00:29:25.283Z,23.99
2016-06-19T00:30:25.599Z,23.92
2016-06-19T00:31:25.322Z,23.96
2016-06-19T00:32:25.341Z,23.97
2016-06-19T00:33:25.360Z,23.93
2016-06-19T00:34:25.723Z,23.92
2016-06-19T00:35:25.383Z,24.02
2016-06-19T00:36:25.636Z,23.96
2016-06-19T00:37:25.390Z,23.94
2016-06-19T00:38:25.409Z,23.87
2016-06-19T00:39:25.724Z,23.92
2016-06-19T00:40:25.478Z,23.99
2016-06-19T00:41:25.481Z,23.97
2016-06-19T00:42:25.751Z,23.87
2016-06-19T00:43:25.442Z,23.94
2016-06-19T00:44:25.477Z,23.87
2016-06-19T00:45:25.481Z,23.94
2016-06-19T00:46:25.499Z,23.87
2016-06-19T00:47:25.846Z,23.85
2016-06-19T00:48:25.521Z,23.89
2016-06-19T00:49:25.822Z,23.99
2016-06-19T00:50:25.685Z,23.85
2016-06-19T00:51:25.547Z,23.92
2016-06-19T00:52:25.567Z,23.87
2016-06-19T00:53:25.570Z,23.84
2016-06-19T00:54:25.573Z,23.9
2016-06-19T00:55:25.576Z,23.89
2016-06-19T00:56:25.768Z,23.89
2016-06-19T00:57:25.615Z,23.92
2016-06-19T00:58:25.634Z,23.84
2016-06-19T00:59:25.747Z,23.87
2016-06-19T01:00:25.657Z,23.9
2016-06-19T01:01:25.786Z,23.9
2016-06-19T01:02:25.695Z,23.87
2016-06-19T01:03:26.355Z,23.85
2016-06-19T01:04:26.296Z,23.85
2016-06-19T01:05:25.877Z,23.82
2016-06-19T01:06:25.709Z,23.79
2016-06-19T01:07:25.868Z,23.84
2016-06-19T01:08:25.746Z,23.85
2016-06-19T01:09:25.891Z,23.87
2016-06-19T01:10:25.737Z,23.84
2016-06-19T01:11:26.382Z,23.85
2016-06-19T01:12:25.792Z,23.89
2016-06-19T01:13:26.405Z,23.85
2016-06-19T01:14:25.799Z,23.82
2016-06-19T01:15:26.427Z,23.84
2016-06-19T01:16:26.431Z,23.79
2016-06-19T01:17:25.841Z,23.79
2016-06-19T01:18:25.860Z,23.84
2016-06-19T01:19:25.910Z,23.82
2016-06-19T01:20:26.491Z,23.78
2016-06-19T01:21:25.886Z,23.81
2016-06-19T01:22:25.889Z,23.81
2016-06-19T01:23:25.907Z,23.79
2016-06-19T01:24:25.911Z,23.81
2016-06-19T01:25:25.947Z,23.81
2016-06-19T01:26:25.950Z,23.82
2016-06-19T01:27:25.954Z,23.81
2016-06-19T01:28:25.957Z,23.81
2016-06-19T01:29:25.975Z,23.81
2016-06-19T01:30:25.979Z,23.79
2016-06-19T01:31:25.983Z,23.82
2016-06-19T01:32:26.002Z,23.77
2016-06-19T01:33:26.021Z,23.78
2016-06-19T01:34:26.009Z,23.82
2016-06-19T01:35:26.043Z,23.75
2016-06-19T01:36:26.047Z,23.84
2016-06-19T01:37:26.066Z,23.78
2016-06-19T01:38:26.069Z,23.74
2016-06-19T01:39:26.088Z,23.82
2016-06-19T01:40:26.702Z,23.77
2016-06-19T01:41:26.111Z,23.79
2016-06-19T01:42:26.145Z,23.79
2016-06-19T01:43:26.134Z,23.79
2016-06-19T01:44:26.121Z,23.74
2016-06-19T01:45:26.141Z,23.79
2016-06-19T01:46:26.159Z,23.79
2016-06-19T01:47:26.178Z,23.81
2016-06-19T01:48:26.182Z,23.78
2016-06-19T01:49:26.795Z,23.79
2016-06-19T01:50:26.814Z,23.79
2016-06-19T01:51:26.239Z,23.78
2016-06-19T01:52:26.227Z,23.79
2016-06-19T01:53:26.231Z,23.77
2016-06-19T01:54:26.281Z,23.77
2016-06-19T01:55:26.866Z,23.82
2016-06-19T01:56:26.280Z,23.74
2016-06-19T01:57:26.287Z,23.77
2016-06-19T01:58:26.294Z,23.77
2016-06-19T01:59:26.316Z,23.77
2016-06-19T02:00:26.337Z,23.77
2016-06-19T02:01:26.326Z,23.78
2016-06-19T02:02:26.361Z,23.78
2016-06-19T02:03:26.383Z,23.81
2016-06-19T02:04:26.403Z,23.78
2016-06-19T02:05:26.391Z,23.71
2016-06-19T02:06:26.442Z,23.77
2016-06-19T02:07:26.415Z,23.74
2016-06-19T02:08:26.419Z,23.79
2016-06-19T02:09:26.438Z,23.77
2016-06-19T02:10:26.457Z,23.77
2016-06-19T02:11:27.383Z,23.71
2016-06-19T02:12:26.479Z,23.74
2016-06-19T02:13:26.498Z,23.74
2016-06-19T02:14:26.518Z,23.74
2016-06-19T02:15:27.115Z,23.7
2016-06-19T02:16:26.524Z,23.72
2016-06-19T02:17:26.543Z,23.72
2016-06-19T02:18:26.532Z,23.74
2016-06-19T02:19:26.536Z,23.71
2016-06-19T02:20:26.553Z,23.67
2016-06-19T02:21:26.573Z,23.75
2016-06-19T02:22:26.561Z,23.72
2016-06-19T02:23:26.596Z,23.75
2016-06-19T02:24:26.614Z,23.72
2016-06-19T02:25:26.618Z,23.71
2016-06-19T02:26:26.638Z,23.7
2016-06-19T02:27:26.641Z,23.71
2016-06-19T02:28:26.659Z,23.67
2016-06-19T02:29:26.663Z,23.71
2016-06-19T02:30:26.682Z,23.75
2016-06-19T02:31:26.686Z,23.67
2016-06-19T02:32:26.689Z,23.71
2016-06-19T02:33:26.709Z,23.77
2016-06-19T02:34:26.712Z,23.71
2016-06-19T02:35:26.716Z,23.67
2016-06-19T02:36:26.734Z,23.64
2016-06-19T02:37:26.753Z,23.67
2016-06-19T02:38:27.382Z,23.71
2016-06-19T02:39:26.776Z,23.67
2016-06-19T02:40:26.779Z,23.7
2016-06-19T02:41:26.798Z,23.71
2016-06-19T02:42:26.802Z,23.64
2016-06-19T02:43:26.821Z,23.74
2016-06-19T02:44:26.825Z,23.67
2016-06-19T02:45:26.843Z,23.67
2016-06-19T02:46:26.846Z,23.67
2016-06-19T02:47:27.772Z,23.7
2016-06-19T02:48:26.870Z,23.77
2016-06-19T02:49:26.872Z,23.6
2016-06-19T02:50:26.892Z,23.72
2016-06-19T02:51:26.911Z,23.74
2016-06-19T02:52:27.165Z,23.67
2016-06-19T02:53:26.933Z,23.63
2016-06-19T02:54:26.937Z,23.66
2016-06-19T02:55:26.957Z,23.71
2016-06-19T02:56:26.960Z,23.63
2016-06-19T02:57:26.978Z,23.59
2016-06-19T02:58:27.170Z,23.63
2016-06-19T02:59:26.986Z,23.72
2016-06-19T03:00:27.005Z,23.72
2016-06-19T03:01:27.227Z,23.64
2016-06-19T03:02:27.027Z,23.7
2016-06-19T03:03:27.046Z,23.66
2016-06-19T03:04:27.034Z,23.7
2016-06-19T03:05:27.256Z,23.62
2016-06-19T03:06:27.276Z,23.7
2016-06-19T03:07:27.076Z,23.74
2016-06-19T03:08:27.095Z,23.66
2016-06-19T03:09:27.723Z,23.63
2016-06-19T03:10:27.117Z,23.64
2016-06-19T03:11:27.121Z,23.62
2016-06-19T03:12:27.452Z,23.71
2016-06-19T03:13:27.144Z,23.7
2016-06-19T03:14:27.273Z,23.67
2016-06-19T03:15:27.182Z,23.67
2016-06-19T03:16:27.372Z,23.62
2016-06-19T03:17:27.204Z,23.62
2016-06-19T03:18:27.568Z,23.64
2016-06-19T03:19:27.210Z,23.71
2016-06-19T03:20:27.230Z,23.6
2016-06-19T03:21:27.234Z,23.71
2016-06-19T03:22:27.253Z,23.71
2016-06-19T03:23:27.865Z,23.66
2016-06-19T03:24:27.525Z,23.57
2016-06-19T03:25:28.139Z,23.66
2016-06-19T03:26:28.157Z,23.7
2016-06-19T03:27:27.926Z,23.71
2016-06-19T03:28:27.321Z,23.72
2016-06-19T03:29:27.324Z,23.7
2016-06-19T03:30:27.953Z,23.63
2016-06-19T03:31:27.612Z,23.66
2016-06-19T03:32:27.646Z,23.63
2016-06-19T03:33:28.009Z,23.71
2016-06-19T03:34:27.998Z,23.62
2016-06-19T03:35:27.485Z,23.7
2016-06-19T03:36:27.394Z,23.75
2016-06-19T03:37:27.430Z,23.67
2016-06-19T03:38:27.433Z,23.7
2016-06-19T03:39:27.421Z,23.71
2016-06-19T03:40:27.799Z,23.72
2016-06-19T03:41:27.475Z,23.67
2016-06-19T03:42:27.462Z,23.67
2016-06-19T03:43:27.529Z,23.66
2016-06-19T03:44:27.485Z,23.7
2016-06-19T03:45:27.504Z,23.63
2016-06-19T03:46:27.508Z,23.64
2016-06-19T03:47:27.637Z,23.62
2016-06-19T03:48:27.529Z,23.6
2016-06-19T03:49:27.815Z,23.7
2016-06-19T03:50:27.725Z,23.72
2016-06-19T03:51:27.571Z,23.74
2016-06-19T03:52:27.715Z,23.7
2016-06-19T03:53:27.595Z,23.71
2016-06-19T03:54:27.754Z,23.62
2016-06-19T03:55:27.617Z,23.66
2016-06-19T03:56:27.636Z,23.62
2016-06-19T03:57:27.827Z,23.63
2016-06-19T03:58:27.706Z,23.7
2016-06-19T03:59:27.646Z,23.66
2016-06-19T04:00:27.682Z,23.72
2016-06-19T04:01:27.778Z,23.64
2016-06-19T04:02:27.953Z,23.67
2016-06-19T04:03:27.692Z,23.67
2016-06-19T04:04:27.710Z,23.72
2016-06-19T04:05:27.824Z,23.62
2016-06-19T04:06:27.780Z,23.71
2016-06-19T04:07:27.752Z,23.64
2016-06-19T04:08:27.755Z,23.74
2016-06-19T04:09:27.759Z,23.72
2016-06-19T04:10:27.794Z,23.72
2016-06-19T04:11:27.798Z,23.72
2016-06-19T04:12:27.818Z,23.62
2016-06-19T04:13:27.809Z,23.67
2016-06-19T04:14:28.031Z,23.67
2016-06-19T04:15:27.833Z,23.71
2016-06-19T04:16:27.854Z,23.64
2016-06-19T04:17:27.874Z,23.63
2016-06-19T04:18:28.519Z,23.72
2016-06-19T04:19:28.132Z,23.63
2016-06-19T04:20:27.918Z,23.72
2016-06-19T04:21:28.297Z,23.72
2016-06-19T04:22:27.925Z,23.72
2016-06-19T04:23:28.037Z,23.66
2016-06-19T04:24:28.151Z,23.63
2016-06-19T04:25:27.983Z,23.7
2016-06-19T04:26:28.314Z,23.63
2016-06-19T04:27:27.973Z,23.75
2016-06-19T04:28:27.977Z,23.75
2016-06-19T04:29:28.027Z,23.71
2016-06-19T04:30:28.000Z,23.67
2016-06-19T04:31:28.018Z,23.7
2016-06-19T04:32:28.037Z,23.72
2016-06-19T04:33:28.135Z,23.71
2016-06-19T04:34:28.170Z,23.75
2016-06-19T04:35:28.064Z,23.72
2016-06-19T04:36:28.270Z,23.64
2016-06-19T04:37:28.696Z,23.77
2016-06-19T04:38:28.731Z,23.72
2016-06-19T04:39:28.123Z,23.71
2016-06-19T04:40:28.127Z,23.63
2016-06-19T04:41:28.163Z,23.75
2016-06-19T04:42:28.744Z,23.62
2016-06-19T04:43:28.248Z,23.75
2016-06-19T04:44:28.158Z,23.75
2016-06-19T04:45:28.176Z,23.74
2016-06-19T04:46:28.195Z,23.64
2016-06-19T04:47:28.215Z,23.62
2016-06-19T04:48:28.202Z,23.75
2016-06-19T04:49:28.221Z,23.6
2016-06-19T04:50:28.241Z,23.72
2016-06-19T04:51:28.244Z,23.75
2016-06-19T04:52:28.294Z,23.63
2016-06-19T04:53:28.266Z,23.7
2016-06-19T04:54:28.269Z,23.66
2016-06-19T04:55:28.289Z,23.74
2016-06-19T04:56:28.293Z,23.66
2016-06-19T04:57:28.311Z,23.74
2016-06-19T04:58:28.314Z,23.7
2016-06-19T04:59:29.553Z,23.64
2016-06-19T05:00:28.337Z,23.67
2016-06-19T05:01:28.357Z,23.67
2016-06-19T05:02:28.361Z,23.67
2016-06-19T05:03:28.379Z,23.72
2016-06-19T05:04:28.992Z,23.7
2016-06-19T05:05:28.402Z,23.71
2016-06-19T05:06:28.405Z,23.66
2016-06-19T05:07:28.409Z,23.71
2016-06-19T05:08:28.428Z,23.64
2016-06-19T05:09:28.446Z,23.67
2016-06-19T05:10:28.450Z,23.71
2016-06-19T05:11:28.470Z,23.67
2016-06-19T05:12:28.473Z,23.74
2016-06-19T05:13:28.491Z,23.75
2016-06-19T05:14:28.495Z,23.74
2016-06-19T05:15:28.498Z,23.64
2016-06-19T05:16:28.502Z,23.75
2016-06-19T05:17:28.552Z,23.63
2016-06-19T05:18:28.525Z,23.71
2016-06-19T05:19:28.544Z,23.67
2016-06-19T05:20:28.562Z,23.66
2016-06-19T05:21:28.582Z,23.67
2016-06-19T05:22:29.805Z,23.75
2016-06-19T05:23:28.589Z,23.71
2016-06-19T05:24:28.609Z,23.67
2016-06-19T05:25:28.612Z,23.72
2016-06-19T05:26:28.630Z,23.75
2016-06-19T05:27:29.244Z,23.7
2016-06-19T05:28:28.653Z,23.67
2016-06-19T05:29:28.672Z,23.71
2016-06-19T05:30:28.660Z,23.72
2016-06-19T05:31:29.288Z,23.71
2016-06-19T05:32:28.683Z,23.77
2016-06-19T05:33:28.701Z,23.7
2016-06-19T05:34:28.721Z,23.72
2016-06-19T05:35:28.740Z,23.71
2016-06-19T05:36:28.728Z,23.72
2016-06-19T05:37:28.763Z,23.67
2016-06-19T05:38:28.749Z,23.67
2016-06-19T05:39:28.769Z,23.74
2016-06-19T05:40:28.773Z,23.71
2016-06-19T05:41:28.808Z,23.7
2016-06-19T05:42:29.435Z,23.7
2016-06-19T05:43:28.815Z,23.71
2016-06-19T05:44:28.817Z,23.67
2016-06-19T05:45:29.446Z,23.74
2016-06-19T05:46:28.871Z,23.67
2016-06-19T05:47:28.875Z,23.75
2016-06-19T05:48:28.879Z,23.67
2016-06-19T05:49:29.506Z,23.71
2016-06-19T05:50:28.901Z,23.67
2016-06-19T05:51:28.920Z,23.74
2016-06-19T05:52:28.909Z,23.67
2016-06-19T05:53:28.926Z,23.74
2016-06-19T05:54:28.931Z,23.71
2016-06-19T05:55:28.949Z,23.72
2016-06-19T05:56:28.953Z,23.67
2016-06-19T05:57:28.973Z,23.74
2016-06-19T05:58:28.991Z,23.7
2016-06-19T05:59:28.995Z,23.75
2016-06-19T06:00:28.997Z,23.74
2016-06-19T06:01:29.017Z,23.75
2016-06-19T06:02:29.036Z,23.72
2016-06-19T06:03:29.039Z,23.74
2016-06-19T06:04:29.105Z,23.74
2016-06-19T06:05:29.046Z,23.72
2016-06-19T06:06:29.065Z,23.77
2016-06-19T06:07:29.069Z,23.75
2016-06-19T06:08:29.104Z,23.74
2016-06-19T06:09:29.092Z,23.72
2016-06-19T06:10:29.126Z,23.75
2016-06-19T06:11:29.130Z,23.75
2016-06-19T06:12:29.134Z,23.77
2016-06-19T06:13:29.137Z,23.77
2016-06-19T06:14:29.172Z,23.77
2016-06-19T06:15:29.175Z,23.77
2016-06-19T06:16:29.178Z,23.78
2016-06-19T06:17:29.198Z,23.78
2016-06-19T06:18:29.201Z,23.75
2016-06-19T06:19:29.204Z,23.74
2016-06-19T06:20:29.223Z,23.72
2016-06-19T06:21:29.226Z,23.79
2016-06-19T06:22:29.855Z,23.78
2016-06-19T06:23:29.546Z,23.75
2016-06-19T06:24:29.284Z,23.81
2016-06-19T06:25:29.945Z,23.77
2016-06-19T06:26:29.290Z,23.77
2016-06-19T06:27:29.294Z,23.74
2016-06-19T06:28:29.320Z,23.77
2016-06-19T06:29:29.579Z,23.74
2016-06-19T06:30:29.355Z,23.79
2016-06-19T06:31:29.364Z,23.81
2016-06-19T06:32:29.403Z,23.82
2016-06-19T06:33:29.596Z,23.72
2016-06-19T06:34:29.415Z,23.78
2016-06-19T06:35:29.436Z,23.79
2016-06-19T06:36:29.427Z,23.77
2016-06-19T06:37:29.729Z,23.75
2016-06-19T06:38:29.467Z,23.78
2016-06-19T06:39:30.222Z,23.75
2016-06-19T06:40:29.492Z,23.75
2016-06-19T06:41:29.496Z,23.77
2016-06-19T06:42:29.516Z,23.81
2016-06-19T06:43:29.768Z,23.85
2016-06-19T06:44:29.538Z,23.82
2016-06-19T06:45:29.541Z,23.84
2016-06-19T06:46:29.593Z,23.84
2016-06-19T06:47:29.565Z,23.85
2016-06-19T06:48:29.583Z,23.82
2016-06-19T06:49:29.587Z,23.84
2016-06-19T06:50:29.590Z,23.78
2016-06-19T06:51:29.718Z,23.84
2016-06-19T06:52:29.628Z,23.84
2016-06-19T06:53:30.225Z,23.84
2016-06-19T06:54:29.651Z,23.82
2016-06-19T06:55:29.654Z,23.84
2016-06-19T06:56:30.283Z,23.89
2016-06-19T06:57:29.661Z,23.85
2016-06-19T06:58:29.696Z,23.92
2016-06-19T06:59:29.965Z,23.85
2016-06-19T07:00:29.703Z,23.84
2016-06-19T07:01:29.706Z,23.87
2016-06-19T07:02:29.725Z,23.92
2016-06-19T07:03:29.745Z,23.84
2016-06-19T07:04:30.482Z,23.82
2016-06-19T07:05:29.767Z,23.82
2016-06-19T07:06:29.786Z,23.84
2016-06-19T07:07:29.790Z,23.85
2016-06-19T07:08:29.809Z,23.82
2016-06-19T07:09:29.811Z,23.85
2016-06-19T07:10:29.831Z,23.84
2016-06-19T07:11:30.740Z,23.85
2016-06-19T07:12:30.526Z,23.87
2016-06-19T07:13:29.842Z,23.82
2016-06-19T07:14:30.642Z,23.87
2016-06-19T07:15:29.864Z,23.87
2016-06-19T07:16:29.898Z,23.84
2016-06-19T07:17:30.136Z,23.84
2016-06-19T07:18:30.750Z,23.85
2016-06-19T07:19:30.550Z,23.81
2016-06-19T07:20:30.038Z,23.85
2016-06-19T07:21:29.948Z,23.85
2016-06-19T07:22:29.997Z,23.82
2016-06-19T07:23:29.970Z,23.84
2016-06-19T07:24:29.957Z,23.87
2016-06-19T07:25:30.602Z,23.87
2016-06-19T07:26:30.245Z,23.82
2016-06-19T07:27:30.015Z,23.9
2016-06-19T07:28:30.019Z,23.9
2016-06-19T07:29:30.287Z,23.82
2016-06-19T07:30:30.041Z,23.82
2016-06-19T07:31:30.060Z,23.89
2016-06-19T07:32:30.345Z,23.94
2016-06-19T07:33:30.099Z,23.87
2016-06-19T07:34:30.086Z,23.92
2016-06-19T07:35:30.106Z,23.9
2016-06-19T07:36:30.421Z,23.87
2016-06-19T07:37:30.127Z,23.85
2016-06-19T07:38:30.131Z,23.87
2016-06-19T07:39:30.290Z,23.87
2016-06-19T07:40:30.419Z,23.96
2016-06-19T07:41:30.204Z,23.9
2016-06-19T07:42:30.176Z,23.94
2016-06-19T07:43:30.258Z,23.89
2016-06-19T07:44:30.182Z,23.85
2016-06-19T07:45:30.218Z,23.89
2016-06-19T07:46:30.315Z,23.85
2016-06-19T07:47:30.225Z,23.89
2016-06-19T07:48:31.197Z,23.87
2016-06-19T07:49:30.263Z,23.87
2016-06-19T07:50:30.469Z,23.93
2016-06-19T07:51:30.269Z,23.87
2016-06-19T07:52:30.585Z,23.89
2016-06-19T07:53:30.902Z,23.93
2016-06-19T07:54:30.311Z,23.96
2016-06-19T07:55:30.331Z,23.9
2016-06-19T07:56:30.334Z,23.89
2016-06-19T07:57:30.963Z,23.99
2016-06-19T07:58:30.356Z,23.85
2016-06-19T07:59:30.376Z,23.89
2016-06-19T08:00:30.363Z,23.96
2016-06-19T08:01:30.382Z,23.92
2016-06-19T08:02:30.995Z,23.93
2016-06-19T08:03:30.405Z,23.97
2016-06-19T08:04:30.409Z,23.87
2016-06-19T08:05:30.427Z,23.89
2016-06-19T08:06:30.447Z,23.93
2016-06-19T08:07:30.451Z,23.93
2016-06-19T08:08:30.453Z,23.96
2016-06-19T08:09:30.474Z,23.93
2016-06-19T08:10:30.491Z,23.97
2016-06-19T08:11:30.495Z,23.93
2016-06-19T08:12:30.498Z,23.96
2016-06-19T08:13:30.518Z,23.93
2016-06-19T08:14:31.147Z,23.94
2016-06-19T08:15:31.150Z,23.97
2016-06-19T08:16:30.576Z,23.94
2016-06-19T08:17:30.984Z,23.96
2016-06-19T08:18:30.582Z,24.03
2016-06-19T08:19:30.586Z,23.87
2016-06-19T08:20:30.604Z,23.93
2016-06-19T08:21:30.608Z,23.9
2016-06-19T08:22:31.236Z,23.93
2016-06-19T08:23:30.678Z,24.03
2016-06-19T08:24:30.634Z,23.96
2016-06-19T08:25:30.637Z,24
2016-06-19T08:26:30.657Z,23.93
2016-06-19T08:27:30.675Z,23.92
2016-06-19T08:28:30.695Z,24.02
2016-06-19T08:29:30.682Z,23.93
2016-06-19T08:30:30.702Z,23.99
2016-06-19T08:31:30.705Z,23.94
2016-06-19T08:32:30.724Z,23.99
2016-06-19T08:33:30.743Z,23.92
2016-06-19T08:34:30.763Z,23.96
2016-06-19T08:35:30.750Z,23.99
2016-06-19T08:36:30.769Z,23.92
2016-06-19T08:37:30.788Z,23.92
2016-06-19T08:38:30.776Z,23.99
2016-06-19T08:39:30.811Z,23.96
2016-06-19T08:40:30.831Z,23.93
2016-06-19T08:41:30.834Z,23.94
2016-06-19T08:42:30.837Z,24.02
2016-06-19T08:43:30.871Z,23.96
2016-06-19T08:44:31.486Z,23.9
2016-06-19T08:45:30.884Z,24.04
2016-06-19T08:46:30.890Z,23.94
2016-06-19T08:47:30.911Z,24.08
2016-06-19T08:48:30.917Z,24
2016-06-19T08:49:31.563Z,23.94
2016-06-19T08:50:30.958Z,23.97
2016-06-19T08:51:30.947Z,24.04
2016-06-19T08:52:30.982Z,24.09
2016-06-19T08:53:30.972Z,24.07
2016-06-19T08:54:30.991Z,24
2016-06-19T08:55:31.605Z,24.04
2016-06-19T08:56:31.031Z,24.08
2016-06-19T08:57:31.034Z,24
2016-06-19T08:58:31.039Z,24.02
2016-06-19T08:59:31.042Z,24.07
2016-06-19T09:00:31.046Z,24.07
2016-06-19T09:01:31.080Z,24.07
2016-06-19T09:02:31.068Z,24
2016-06-19T09:03:31.727Z,24.03
2016-06-19T09:04:31.715Z,24.08
2016-06-19T09:05:31.734Z,24.03
2016-06-19T09:06:31.128Z,24.07
2016-06-19T09:07:31.148Z,24.09
2016-06-19T09:08:31.135Z,24.11
2016-06-19T09:09:31.170Z,24.07
2016-06-19T09:10:31.173Z,24.08
2016-06-19T09:11:31.176Z,24.02
2016-06-19T09:12:31.180Z,24.07
2016-06-19T09:13:31.215Z,24.07
2016-06-19T09:14:31.219Z,23.99
2016-06-19T09:15:31.222Z,24.02
2016-06-19T09:16:31.226Z,24.07
2016-06-19T09:17:31.245Z,23.99
2016-06-19T09:18:31.248Z,24.03
2016-06-19T09:19:31.283Z,24.04
2016-06-19T09:20:31.271Z,24.07
2016-06-19T09:21:31.306Z,24.02
2016-06-19T09:22:31.292Z,24.02
2016-06-19T09:23:31.328Z,24.03
2016-06-19T09:24:31.315Z,24.04
2016-06-19T09:25:31.350Z,24.09
2016-06-19T09:26:31.354Z,24.09
2016-06-19T09:27:31.357Z,24.07
2016-06-19T09:28:31.377Z,24.09
2016-06-19T09:29:31.379Z,24.09
2016-06-19T09:30:31.414Z,24.08
2016-06-19T09:31:31.434Z,24.03
2016-06-19T09:32:31.422Z,23.99
2016-06-19T09:33:31.425Z,24.03
2016-06-19T09:34:31.445Z,24.04
2016-06-19T09:35:31.447Z,24.08
2016-06-19T09:36:31.466Z,24.04
2016-06-19T09:37:31.469Z,24.07
2016-06-19T09:38:31.489Z,24.04
2016-06-19T09:39:31.493Z,24.04
2016-06-19T09:40:32.714Z,24.03
2016-06-19T09:41:31.515Z,24.09
2016-06-19T09:42:31.534Z,24.07
2016-06-19T09:43:31.553Z,24.04
2016-06-19T09:44:31.541Z,24.04
2016-06-19T09:45:31.560Z,24.07
2016-06-19T09:46:31.580Z,24.11
2016-06-19T09:47:31.629Z,24.11
2016-06-19T09:48:31.617Z,24.04
2016-06-19T09:49:31.605Z,24.02
2016-06-19T09:50:31.624Z,24.09
2016-06-19T09:51:31.612Z,24.03
2016-06-19T09:52:31.647Z,24.08
2016-06-19T09:53:31.650Z,24.03
2016-06-19T09:54:31.685Z,24.07
2016-06-19T09:55:31.673Z,24.11
2016-06-19T09:56:31.692Z,24.09
2016-06-19T09:57:31.696Z,24.04
2016-06-19T09:58:31.761Z,24.11
2016-06-19T09:59:31.718Z,24.11
2016-06-19T10:00:31.737Z,24.12
2016-06-19T10:01:31.756Z,24.19
2016-06-19T10:02:31.744Z,24.09
2016-06-19T10:03:31.764Z,24.12
2016-06-19T10:04:31.782Z,24.07
2016-06-19T10:05:31.785Z,24.09
2016-06-19T10:06:31.789Z,24.14
2016-06-19T10:07:31.808Z,24.11
2016-06-19T10:08:31.827Z,24.09
2016-06-19T10:09:31.815Z,24.12
2016-06-19T10:10:31.850Z,24.08
2016-06-19T10:11:31.869Z,24.14
2016-06-19T10:12:31.872Z,24.18
2016-06-19T10:13:31.876Z,24.14
2016-06-19T10:14:31.894Z,24.14
2016-06-19T10:15:31.898Z,24.15
2016-06-19T10:16:31.901Z,24.11
2016-06-19T10:17:31.937Z,24.12
2016-06-19T10:18:31.940Z,24.18
2016-06-19T10:19:31.944Z,24.09
2016-06-19T10:20:31.962Z,24.07
2016-06-19T10:21:31.966Z,24.17
2016-06-19T10:22:32.000Z,24.11
2016-06-19T10:23:31.989Z,24.11
2016-06-19T10:24:32.007Z,24.17
2016-06-19T10:25:32.620Z,24.11
2016-06-19T10:26:32.030Z,24.15
2016-06-19T10:27:32.033Z,24.18
2016-06-19T10:28:32.678Z,24.11
2016-06-19T10:29:32.071Z,24.08
2016-06-19T10:30:32.075Z,24.22
2016-06-19T10:31:32.079Z,24.18
2016-06-19T10:32:32.082Z,24.19
2016-06-19T10:33:32.086Z,24.26
2016-06-19T10:34:32.105Z,24.19
2016-06-19T10:35:32.124Z,24.22
2016-06-19T10:36:32.190Z,24.15
2016-06-19T10:37:32.131Z,24.24
2016-06-19T10:38:32.149Z,24.21
2016-06-19T10:39:32.153Z,24.24
2016-06-19T10:40:32.187Z,24.24
2016-06-19T10:41:32.176Z,24.22
2016-06-19T10:42:32.820Z,24.17
2016-06-19T10:43:32.198Z,24.17
2016-06-19T10:44:32.218Z,24.15
2016-06-19T10:45:32.220Z,24.21
2016-06-19T10:46:32.240Z,24.19
2016-06-19T10:47:32.258Z,24.18
2016-06-19T10:48:32.262Z,24.15
2016-06-19T10:49:32.282Z,24.17
2016-06-19T10:50:32.285Z,24.19
2016-06-19T10:51:32.305Z,24.19
2016-06-19T10:52:32.307Z,24.15
2016-06-19T10:53:32.327Z,24.17
2016-06-19T10:54:32.346Z,24.18
2016-06-19T10:55:32.333Z,24.17
2016-06-19T10:56:32.352Z,24.21
2016-06-19T10:57:32.356Z,24.15
2016-06-19T10:58:32.375Z,24.14
2016-06-19T10:59:32.378Z,24.14
2016-06-19T11:00:32.398Z,24.15
2016-06-19T11:01:32.403Z,24.18
2016-06-19T11:02:32.439Z,24.19
2016-06-19T11:03:32.444Z,24.21
2016-06-19T11:04:32.465Z,24.18
2016-06-19T11:05:32.469Z,24.17
2016-06-19T11:06:32.473Z,24.14
2016-06-19T11:07:32.493Z,24.27
2016-06-19T11:08:32.497Z,24.27
2016-06-19T11:09:32.516Z,24.21
2016-06-19T11:10:32.505Z,24.17
2016-06-19T11:11:32.540Z,24.22
2016-06-19T11:12:32.544Z,24.26
2016-06-19T11:13:32.562Z,24.17
2016-06-19T11:14:32.567Z,24.22
2016-06-19T11:15:32.586Z,24.17
2016-06-19T11:16:32.589Z,24.19
2016-06-19T11:17:32.609Z,24.17
2016-06-19T11:18:32.627Z,24.24
2016-06-19T11:19:32.616Z,24.24
2016-06-19T11:20:32.634Z,24.29
2016-06-19T11:21:32.654Z,24.21
2016-06-19T11:22:32.641Z,24.24
2016-06-19T11:23:32.661Z,24.22
2016-06-19T11:24:32.680Z,24.15
2016-06-19T11:25:32.683Z,24.17
2016-06-19T11:26:32.687Z,24.27
2016-06-19T11:27:32.737Z,24.24
2016-06-19T11:28:32.725Z,24.24
2016-06-19T11:29:33.353Z,24.24
2016-06-19T11:30:33.357Z,24.24
2016-06-19T11:31:32.766Z,24.29
2016-06-19T11:32:32.754Z,24.27
2016-06-19T11:33:32.789Z,24.26
2016-06-19T11:34:32.807Z,24.33
2016-06-19T11:35:32.796Z,24.22
2016-06-19T11:36:33.424Z,24.3
2016-06-19T11:37:33.443Z,24.29
2016-06-19T11:38:32.837Z,24.26
2016-06-19T11:39:32.857Z,24.26
2016-06-19T11:40:32.875Z,24.24
2016-06-19T11:41:32.878Z,24.21
2016-06-19T11:42:32.883Z,24.29
2016-06-19T11:43:32.886Z,24.27
2016-06-19T11:44:32.905Z,24.24
2016-06-19T11:45:32.909Z,24.15
2016-06-19T11:46:32.927Z,24.32
2016-06-19T11:47:33.541Z,24.29
2016-06-19T11:48:32.950Z,24.15
2016-06-19T11:49:32.953Z,24.17
2016-06-19T11:50:32.957Z,24.27
2016-06-19T11:51:33.007Z,24.22
2016-06-19T11:52:32.979Z,24.27
2016-06-19T11:53:32.999Z,24.15
2016-06-19T11:54:33.018Z,24.22
2016-06-19T11:55:33.647Z,24.17
2016-06-19T11:56:33.041Z,24.15
2016-06-19T11:57:33.045Z,24.18
2016-06-19T11:58:33.703Z,24.3
2016-06-19T11:59:33.676Z,24.24
2016-06-19T12:00:33.086Z,24.19
2016-06-19T12:01:33.104Z,24.17
2016-06-19T12:02:33.701Z,24.18
2016-06-19T12:03:33.127Z,24.21
2016-06-19T12:04:33.131Z,24.17
2016-06-19T12:05:33.150Z,24.26
2016-06-19T12:06:33.153Z,24.18
2016-06-19T12:07:33.172Z,24.3
2016-06-19T12:08:33.176Z,24.24
2016-06-19T12:09:33.178Z,24.19
2016-06-19T12:10:33.198Z,24.22
2016-06-19T12:11:33.201Z,24.29
2016-06-19T12:12:33.222Z,24.27
2016-06-19T12:13:33.225Z,24.3
2016-06-19T12:14:33.243Z,24.21
2016-06-19T12:15:33.277Z,24.3
2016-06-19T12:16:33.250Z,24.18
2016-06-19T12:17:33.269Z,24.26
2016-06-19T12:18:33.273Z,24.22
2016-06-19T12:19:33.916Z,24.24
2016-06-19T12:20:33.295Z,24.19
2016-06-19T12:21:33.971Z,24.24
2016-06-19T12:22:33.333Z,24.19
2016-06-19T12:23:33.337Z,24.27
2016-06-19T12:24:33.356Z,24.18
2016-06-19T12:25:33.359Z,24.24
2016-06-19T12:26:33.395Z,24.27
2016-06-19T12:27:33.398Z,24.21
2016-06-19T12:28:33.401Z,24.26
2016-06-19T12:29:33.405Z,24.29
2016-06-19T12:30:33.424Z,24.29
2016-06-19T12:31:33.426Z,24.26
2016-06-19T12:32:33.446Z,24.34
2016-06-19T12:33:33.450Z,24.29
2016-06-19T12:34:33.468Z,24.24
2016-06-19T12:35:33.471Z,24.22
2016-06-19T12:36:33.491Z,24.27
2016-06-19T12:37:33.478Z,24.26
2016-06-19T12:38:33.515Z,24.29
2016-06-19T12:39:33.517Z,24.26
2016-06-19T12:40:33.521Z,24.29
2016-06-19T12:41:33.540Z,24.24
2016-06-19T12:42:33.559Z,24.3
2016-06-19T12:43:33.594Z,24.26
2016-06-19T12:44:33.582Z,24.26
2016-06-19T12:45:33.586Z,24.24
2016-06-19T12:46:33.619Z,24.27
2016-06-19T12:47:33.607Z,24.26
2016-06-19T12:48:33.627Z,24.27
2016-06-19T12:49:33.630Z,24.26
2016-06-19T12:50:34.008Z,24.27
2016-06-19T12:51:33.668Z,24.32
2016-06-19T12:52:33.687Z,24.24
2016-06-19T12:53:33.691Z,24.27
2016-06-19T12:54:33.710Z,24.27